createdAt,value
2023-05-14T15:47:23.832Z,100320.04
2023-05-14T15:49:51.510Z,100316.77
2023-05-14T15:52:19.243Z,100312.98
2023-05-14T15:54:47.408Z,100310.99
2023-05-14T15:57:16.948Z,100308.86
2023-05-14T15:59:47.178Z,100309.37
2023-05-14T16:02:15.481Z,100309.79
2023-05-14T16:04:45.261Z,100311.40
2023-05-14T16:07:13.533Z,100311.09
2023-05-14T16:09:41.531Z,100306.48
2023-05-14T16:12:09.473Z,100305.40
2023-05-14T16:14:37.770Z,100301.98
2023-05-14T16:17:06.444Z,100302.86
2023-05-14T16:19:34.092Z,100304.52
2023-05-14T16:22:01.852Z,100303.73
2023-05-14T16:24:29.596Z,100298.84
2023-05-14T16:26:57.481Z,100300.23
2023-05-14T16:29:25.370Z,100295.23
2023-05-14T16:31:53.190Z,100292.92
2023-05-14T16:34:21.220Z,100291.98
2023-05-14T16:36:48.976Z,100287.05
2023-05-14T16:39:17.557Z,100283.05
2023-05-14T16:41:45.578Z,100282.48
2023-05-14T16:44:13.443Z,100276.28
2023-05-14T16:46:41.144Z,100275.58
2023-05-14T16:49:08.972Z,100272.50
2023-05-14T16:51:42.259Z,100277.40
2023-05-14T16:54:10.340Z,100281.52
2023-05-14T16:56:38.079Z,100283.76
2023-05-14T16:59:07.567Z,100290.29
2023-05-14T17:01:35.956Z,100290.59
2023-05-14T17:04:03.991Z,100287.01
2023-05-14T17:06:32.007Z,100282.39
2023-05-14T17:08:59.852Z,100282.98
2023-05-14T17:11:27.714Z,100283.89
2023-05-14T17:14:00.406Z,100282.18
2023-05-14T17:18:56.621Z,100284.48
2023-05-14T17:21:24.608Z,100286.34
2023-05-14T17:23:52.392Z,100288.67
2023-05-14T17:26:20.177Z,100287.48
2023-05-14T17:28:48.018Z,100290.83
2023-05-14T17:31:16.006Z,100287.41
2023-05-14T17:33:43.843Z,100284.67
2023-05-14T17:36:11.704Z,100289.39
2023-05-14T17:38:39.540Z,100285.19
2023-05-14T17:41:07.631Z,100282.52
2023-05-14T17:43:35.790Z,100277.70
2023-05-14T17:46:04.220Z,100274.94
2023-05-14T17:48:32.758Z,100273.39
2023-05-14T17:51:00.840Z,100272.67
2023-05-14T17:53:28.741Z,100268.23
2023-05-14T17:55:56.578Z,100269.73
2023-05-14T17:58:24.479Z,100275.05
2023-05-14T18:00:52.269Z,100276.31
2023-05-14T18:03:20.638Z,100278.26
2023-05-14T18:05:48.642Z,100276.78
2023-05-14T18:08:17.204Z,100279.58
2023-05-14T18:10:45.018Z,100278.02
2023-05-14T18:13:12.727Z,100280.58
2023-05-14T18:15:40.677Z,100276.77
2023-05-14T18:18:08.579Z,100274.63
2023-05-14T18:20:36.463Z,100272.25
2023-05-14T18:23:04.721Z,100271.85
2023-05-14T18:25:32.470Z,100267.84
2023-05-14T18:28:00.386Z,100262.92
2023-05-14T18:30:28.177Z,100260.41
2023-05-14T18:32:55.941Z,100258.63
2023-05-14T18:35:23.819Z,100259.48
2023-05-14T18:37:51.988Z,100259.30
2023-05-14T18:40:19.805Z,100253.22
2023-05-14T18:42:47.731Z,100254.55
2023-05-14T18:45:16.064Z,100254.79
2023-05-14T18:47:44.062Z,100255.10
2023-05-14T18:50:12.021Z,100252.00
2023-05-14T18:52:39.963Z,100254.25
2023-05-14T18:55:08.153Z,100254.67
2023-05-14T18:57:36.776Z,100259.83
2023-05-14T19:00:05.228Z,100261.93
2023-05-14T19:02:32.972Z,100263.51
2023-05-14T19:05:01.235Z,100260.98
2023-05-14T19:07:30.524Z,100256.55
2023-05-14T19:09:58.252Z,100255.86
2023-05-14T19:12:26.926Z,100258.35
2023-05-14T19:14:54.942Z,100257.59
2023-05-14T19:17:22.898Z,100255.59
2023-05-14T19:19:50.932Z,100261.34
2023-05-14T19:22:19.540Z,100259.64
2023-05-14T19:24:47.310Z,100261.17
2023-05-14T19:27:16.792Z,100260.94
2023-05-14T19:29:44.688Z,100252.80
2023-05-14T19:32:12.498Z,100237.34
2023-05-14T19:34:40.595Z,100232.70
2023-05-14T19:37:08.645Z,100232.73
2023-05-14T19:39:36.373Z,100236.52
2023-05-14T19:42:04.478Z,100237.13
2023-05-14T19:44:32.705Z,100245.80
2023-05-14T19:47:00.751Z,100256.39
2023-05-14T19:49:28.654Z,100272.38
2023-05-14T19:51:56.659Z,100284.00
2023-05-14T19:54:24.580Z,100289.98
2023-05-14T19:56:52.564Z,100285.42
2023-05-14T19:59:20.468Z,100272.81
2023-05-14T20:01:48.403Z,100257.61
2023-05-14T20:04:16.412Z,100223.23
2023-05-14T20:06:45.582Z,100213.03
2023-05-14T20:09:16.445Z,100210.33
2023-05-14T20:11:44.211Z,100205.45
2023-05-14T20:14:12.347Z,100201.63
2023-05-14T20:16:40.354Z,100198.20
2023-05-14T20:19:08.336Z,100191.73
2023-05-14T20:21:36.440Z,100191.45
2023-05-14T20:24:04.692Z,100189.09
2023-05-14T20:26:32.591Z,100190.16
2023-05-14T20:29:00.886Z,100197.49
2023-05-14T20:31:29.112Z,100202.55
2023-05-14T20:33:57.015Z,100201.63
2023-05-14T20:36:25.820Z,100197.84
2023-05-14T20:38:53.712Z,100195.56
2023-05-14T20:41:22.359Z,100191.05
2023-05-14T20:43:50.184Z,100187.13
2023-05-14T20:46:18.008Z,100188.54
2023-05-14T20:48:47.257Z,100181.91
2023-05-14T20:51:15.005Z,100179.38
2023-05-14T20:53:42.964Z,100169.58
2023-05-14T20:56:11.107Z,100164.02
2023-05-14T20:58:38.849Z,100168.56
2023-05-14T21:01:08.302Z,100167.55
2023-05-14T21:03:36.434Z,100165.75
2023-05-14T21:06:04.400Z,100160.39
2023-05-14T21:08:33.145Z,100164.14
2023-05-14T21:11:00.976Z,100168.20
2023-05-14T21:13:28.802Z,100171.97
2023-05-14T21:15:56.712Z,100169.58
2023-05-14T21:18:27.139Z,100165.04
2023-05-14T21:20:55.010Z,100152.95
2023-05-14T21:23:22.956Z,100149.58
2023-05-14T21:25:51.174Z,100144.71
2023-05-14T21:28:18.977Z,100149.89
2023-05-14T21:30:46.882Z,100155.67
2023-05-14T21:33:15.679Z,100168.40
2023-05-14T21:35:43.441Z,100182.40
2023-05-14T21:38:14.422Z,100201.13
2023-05-14T21:40:42.425Z,100208.41
2023-05-14T21:43:10.306Z,100212.86
2023-05-14T21:45:40.794Z,100211.31
2023-05-14T21:48:08.892Z,100203.59
2023-05-14T21:50:37.195Z,100194.39
2023-05-14T21:53:05.204Z,100194.70
2023-05-14T21:55:33.043Z,100198.02
2023-05-14T21:58:00.971Z,100194.06
2023-05-14T22:00:29.107Z,100190.08
2023-05-14T22:02:56.839Z,100184.96
2023-05-14T22:05:24.918Z,100183.29
2023-05-14T22:07:52.956Z,100176.65
2023-05-14T22:10:20.880Z,100170.95
2023-05-14T22:12:57.225Z,100167.91
2023-05-14T22:15:25.220Z,100165.67
2023-05-14T22:17:53.308Z,100158.89
2023-05-14T22:20:21.516Z,100153.89
2023-05-14T22:22:50.045Z,100148.42
2023-05-14T22:25:17.789Z,100141.95
2023-05-14T22:27:45.531Z,100138.35
2023-05-14T22:30:13.397Z,100131.19
2023-05-14T22:32:41.370Z,100126.66
2023-05-14T22:35:09.344Z,100122.34
2023-05-14T22:37:37.257Z,100118.46
2023-05-14T22:40:05.729Z,100111.14
2023-05-14T22:42:33.657Z,100107.45
2023-05-14T22:45:01.483Z,100107.37
2023-05-14T22:47:29.618Z,100107.24
2023-05-14T22:49:57.466Z,100100.41
2023-05-14T22:52:26.095Z,100102.33
2023-05-14T22:54:54.777Z,100095.61
2023-05-14T22:57:23.662Z,100095.09
2023-05-14T23:00:06.866Z,100090.77
2023-05-14T23:02:34.839Z,100087.38
2023-05-14T23:05:02.869Z,100090.17
2023-05-14T23:07:30.784Z,100087.11
2023-05-14T23:09:58.452Z,100083.90
2023-05-14T23:12:26.277Z,100078.24
2023-05-14T23:14:54.199Z,100074.52
2023-05-14T23:17:22.037Z,100073.55
2023-05-14T23:19:50.056Z,100067.23
2023-05-14T23:22:17.931Z,100065.86
2023-05-14T23:24:45.826Z,100061.56
2023-05-14T23:27:13.688Z,100061.59
2023-05-14T23:29:41.392Z,100054.52
2023-05-14T23:32:09.401Z,100049.84
2023-05-14T23:34:37.298Z,100049.27
2023-05-14T23:37:05.384Z,100045.02
2023-05-14T23:39:33.450Z,100042.68
2023-05-14T23:42:01.186Z,100036.66
2023-05-14T23:44:29.060Z,100033.48
2023-05-14T23:46:56.851Z,100033.65
2023-05-14T23:49:24.733Z,100026.33
2023-05-14T23:51:52.727Z,100019.29
2023-05-14T23:54:21.300Z,100015.42
2023-05-14T23:56:49.221Z,100010.27
2023-05-14T23:59:16.982Z,100007.55
